Black Forest, Colorado
Current Conditions -  °F | °C
As of 3:58 PM on Wednesday 22 Oct 2014 (Local Time) from KAFF Reporting Station
Rain Showers Rain Showers  
Wind Chill: 56°   Ceiling: 20000
Heat Index: 56°   Visibility: 10mi
Dew Point: 44°   Wind: 1mph
Humidity: 63%   Direction: NA
Pressure: 30.13"   Gusts: NA
Location:  39.0424°N, 104.69°W
Report Text: KAFF 222158Z VRB01KT 10SM -SHRA FEW065 SCT090 SCT110 BKN200 14/07 A3013 RMK AO2A DZB2150E2154 SLP152 P0004 T01350066
Loading
Personal Weather Stations






























Interactive Weather Map
Tropical Storm Tracking
New forecast layout! Learn more

10-Day Weather Forecast

Advertisements
Track Severe Weather on mobile